Main page
METAR-TAF:

METAR-TAF

Airports :

Stanton County Municipal Airport

Stanton County, Kansas, United States

latitude: 37-35-07N, longitude: 101-43-56W, elevation: 3323 ft

Current weather observation

The report was made 20 minutes ago, at 03:35 UTC
Wind 21 mph from the North/Northeast with gusts up to 31 mph
Temperature 72°F
Humidity 73%
Pressure 29.86 in. Hg
Visibility: 10 miles
Clear sky

METAR: KJHN 190335Z AUTO 03018G27KT 10SM CLR 22/17 A2986 RMK AO2 LTG DSNT SE T02210172

Time: 22:55 (03:55 UTC)


TAF: missing

Weather observations and forecasts of more than 4000 airports (METAR and TAF reports).

The available stations are represented by yellow and red dots on the map.

Hover mouse over dot to see the name of the station.

Then click to see weather observations and forecasts.

To change the map : click on the green buttons with a black cross to zoom in, on the green button with a dash to zoom out, or on the green arrows for adjacent maps.


METAR-TAF: